sensor_id;sensor_type;location;lat;lon;timestamp;pressure;altitude;pressure_sealevel;temperature;humidity
9822;BME280;4950;46.042;14.472;2022-09-28T00:00:56;96796.69;;;11.91;93.20
9822;BME280;4950;46.042;14.472;2022-09-28T00:03:23;96797.88;;;11.95;93.23
9822;BME280;4950;46.042;14.472;2022-09-28T00:05:50;96781.69;;;11.93;93.02
9822;BME280;4950;46.042;14.472;2022-09-28T00:08:16;96786.47;;;11.96;92.68
9822;BME280;4950;46.042;14.472;2022-09-28T00:10:43;96794.28;;;11.96;92.87
9822;BME280;4950;46.042;14.472;2022-09-28T00:13:10;96793.44;;;12.02;92.78
9822;BME280;4950;46.042;14.472;2022-09-28T00:15:38;96793.06;;;11.98;92.99
9822;BME280;4950;46.042;14.472;2022-09-28T00:18:05;96787.47;;;11.95;93.43
9822;BME280;4950;46.042;14.472;2022-09-28T00:20:32;96791.09;;;11.94;93.22
9822;BME280;4950;46.042;14.472;2022-09-28T00:22:58;96794.47;;;11.94;93.26
9822;BME280;4950;46.042;14.472;2022-09-28T00:25:25;96795.88;;;11.97;92.96
9822;BME280;4950;46.042;14.472;2022-09-28T00:27:52;96789.28;;;11.94;92.43
9822;BME280;4950;46.042;14.472;2022-09-28T00:30:18;96775.88;;;11.97;92.52
9822;BME280;4950;46.042;14.472;2022-09-28T00:32:46;96772.88;;;11.94;92.21
9822;BME280;4950;46.042;14.472;2022-09-28T00:35:13;96766.53;;;11.90;92.46
9822;BME280;4950;46.042;14.472;2022-09-28T00:37:40;96764.88;;;11.89;92.80
9822;BME280;4950;46.042;14.472;2022-09-28T00:40:07;96767.91;;;11.85;93.00
9822;BME280;4950;46.042;14.472;2022-09-28T00:42:34;96760.91;;;11.86;93.04
9822;BME280;4950;46.042;14.472;2022-09-28T00:45:00;96766.31;;;11.84;92.89
9822;BME280;4950;46.042;14.472;2022-09-28T00:47:42;96772.53;;;11.83;92.84
9822;BME280;4950;46.042;14.472;2022-09-28T00:50:20;96768.13;;;11.84;92.84
9822;BME280;4950;46.042;14.472;2022-09-28T00:52:50;96766.13;;;11.79;92.90
9822;BME280;4950;46.042;14.472;2022-09-28T00:55:23;96768.72;;;11.79;92.90
9822;BME280;4950;46.042;14.472;2022-09-28T00:57:55;96765.53;;;11.77;92.51
9822;BME280;4950;46.042;14.472;2022-09-28T01:00:23;96766.75;;;11.75;92.75
9822;BME280;4950;46.042;14.472;2022-09-28T01:02:50;96765.97;;;11.74;92.67
9822;BME280;4950;46.042;14.472;2022-09-28T01:05:19;96763.75;;;11.78;92.62
9822;BME280;4950;46.042;14.472;2022-09-28T01:07:46;96754.78;;;11.74;92.30
9822;BME280;4950;46.042;14.472;2022-09-28T01:10:14;96757.16;;;11.75;92.39
9822;BME280;4950;46.042;14.472;2022-09-28T01:12:40;96761.78;;;11.73;92.39
9822;BME280;4950;46.042;14.472;2022-09-28T01:15:08;96759.38;;;11.72;92.49
9822;BME280;4950;46.042;14.472;2022-09-28T01:17:43;96753.19;;;11.73;92.05
9822;BME280;4950;46.042;14.472;2022-09-28T01:20:36;96743.19;;;11.70;92.05
9822;BME280;4950;46.042;14.472;2022-09-28T01:26:25;96740.97;;;11.73;91.83
9822;BME280;4950;46.042;14.472;2022-09-28T01:29:01;96742.41;;;11.69;91.98
9822;BME280;4950;46.042;14.472;2022-09-28T01:31:31;96736.03;;;11.65;92.34
9822;BME280;4950;46.042;14.472;2022-09-28T01:34:03;96733.44;;;11.65;92.96
9822;BME280;4950;46.042;14.472;2022-09-28T01:36:34;96731.22;;;11.69;92.72
9822;BME280;4950;46.042;14.472;2022-09-28T01:39:07;96736.63;;;11.67;92.47
9822;BME280;4950;46.042;14.472;2022-09-28T01:41:38;96745.38;;;11.73;92.43
9822;BME280;4950;46.042;14.472;2022-09-28T01:44:07;96748.81;;;11.66;92.29
9822;BME280;4950;46.042;14.472;2022-09-28T01:46:37;96754.44;;;11.63;92.46
9822;BME280;4950;46.042;14.472;2022-09-28T01:49:11;96748.44;;;11.63;92.61
9822;BME280;4950;46.042;14.472;2022-09-28T01:51:42;96742.59;;;11.68;92.83
9822;BME280;4950;46.042;14.472;2022-09-28T01:54:12;96745.78;;;11.70;92.87
9822;BME280;4950;46.042;14.472;2022-09-28T01:56:43;96747.59;;;11.69;92.45
9822;BME280;4950;46.042;14.472;2022-09-28T01:59:13;96745.19;;;11.68;92.57
9822;BME280;4950;46.042;14.472;2022-09-28T02:01:44;96742.59;;;11.68;92.55
9822;BME280;4950;46.042;14.472;2022-09-28T02:04:16;96742.41;;;11.69;92.82
9822;BME280;4950;46.042;14.472;2022-09-28T02:06:48;96737.78;;;11.71;92.43
9822;BME280;4950;46.042;14.472;2022-09-28T02:09:21;96735.38;;;11.70;92.26
9822;BME280;4950;46.042;14.472;2022-09-28T02:11:53;96735.63;;;11.68;92.26
9822;BME280;4950;46.042;14.472;2022-09-28T02:14:24;96733.56;;;11.77;91.59
9822;BME280;4950;46.042;14.472;2022-09-28T02:16:52;96734.00;;;11.74;92.09
9822;BME280;4950;46.042;14.472;2022-09-28T02:19:21;96739.78;;;11.69;92.78
9822;BME280;4950;46.042;14.472;2022-09-28T02:21:54;96733.38;;;11.72;92.81
9822;BME280;4950;46.042;14.472;2022-09-28T02:24:27;96738.56;;;11.72;92.61
9822;BME280;4950;46.042;14.472;2022-09-28T02:26:58;96733.16;;;11.73;92.44
9822;BME280;4950;46.042;14.472;2022-09-28T02:29:27;96730.16;;;11.76;92.49
9822;BME280;4950;46.042;14.472;2022-09-28T02:31:54;96731.16;;;11.75;92.03
9822;BME280;4950;46.042;14.472;2022-09-28T02:34:21;96729.00;;;11.72;92.19
9822;BME280;4950;46.042;14.472;2022-09-28T02:36:47;96735.19;;;11.71;92.08
9822;BME280;4950;46.042;14.472;2022-09-28T02:39:15;96745.38;;;11.73;91.88
9822;BME280;4950;46.042;14.472;2022-09-28T02:41:52;96740.97;;;11.73;91.61
9822;BME280;4950;46.042;14.472;2022-09-28T02:44:38;96745.19;;;11.68;91.62
9822;BME280;4950;46.042;14.472;2022-09-28T02:47:17;96747.22;;;11.65;91.85
9822;BME280;4950;46.042;14.472;2022-09-28T02:49:51;96742.97;;;11.71;91.37
9822;BME280;4950;46.042;14.472;2022-09-28T02:52:35;96744.59;;;11.72;91.00
9822;BME280;4950;46.042;14.472;2022-09-28T02:55:19;96736.78;;;11.72;90.69
9822;BME280;4950;46.042;14.472;2022-09-28T02:58:02;96735.63;;;11.68;90.98
9822;BME280;4950;46.042;14.472;2022-09-28T03:00:40;96736.81;;;11.65;91.31
9822;BME280;4950;46.042;14.472;2022-09-28T03:03:17;96737.84;;;11.64;91.38
9822;BME280;4950;46.042;14.472;2022-09-28T03:05:52;96731.00;;;11.70;91.56
9822;BME280;4950;46.042;14.472;2022-09-28T03:08:24;96731.22;;;11.69;91.73
9822;BME280;4950;46.042;14.472;2022-09-28T03:10:55;96739.41;;;11.65;91.46
9822;BME280;4950;46.042;14.472;2022-09-28T03:13:24;96738.81;;;11.63;91.53
9822;BME280;4950;46.042;14.472;2022-09-28T03:16:06;96746.84;;;11.62;91.78
9822;BME280;4950;46.042;14.472;2022-09-28T03:18:33;96753.22;;;11.66;90.88
9822;BME280;4950;46.042;14.472;2022-09-28T03:21:00;96751.44;;;11.60;91.06
9822;BME280;4950;46.042;14.472;2022-09-28T03:23:27;96752.66;;;11.57;90.87
9822;BME280;4950;46.042;14.472;2022-09-28T03:25:53;96752.47;;;11.59;90.96
9822;BME280;4950;46.042;14.472;2022-09-28T03:28:20;96748.25;;;11.58;90.71
9822;BME280;4950;46.042;14.472;2022-09-28T03:30:47;96740.44;;;11.58;90.94
9822;BME280;4950;46.042;14.472;2022-09-28T03:33:15;96744.06;;;11.57;90.83
9822;BME280;4950;46.042;14.472;2022-09-28T03:35:45;96746.09;;;11.55;90.59
9822;BME280;4950;46.042;14.472;2022-09-28T03:38:12;96746.69;;;11.57;90.80
9822;BME280;4950;46.042;14.472;2022-09-28T03:40:38;96748.69;;;11.55;90.62
9822;BME280;4950;46.042;14.472;2022-09-28T03:43:05;96740.50;;;11.51;90.59
9822;BME280;4950;46.042;14.472;2022-09-28T03:45:32;96736.53;;;11.49;90.53
9822;BME280;4950;46.042;14.472;2022-09-28T03:47:58;96741.69;;;11.55;90.61
9822;BME280;4950;46.042;14.472;2022-09-28T03:50:26;96723.28;;;11.57;90.56
9822;BME280;4950;46.042;14.472;2022-09-28T03:52:53;96722.69;;;11.55;90.64
9822;BME280;4950;46.042;14.472;2022-09-28T03:55:19;96728.09;;;11.53;90.25
9822;BME280;4950;46.042;14.472;2022-09-28T03:57:52;96725.91;;;11.50;90.38
9822;BME280;4950;46.042;14.472;2022-09-28T04:00:19;96724.13;;;11.44;90.90
9822;BME280;4950;46.042;14.472;2022-09-28T04:02:45;96722.97;;;11.40;90.79
9822;BME280;4950;46.042;14.472;2022-09-28T04:05:12;96722.81;;;11.35;90.72
9822;BME280;4950;46.042;14.472;2022-09-28T04:07:40;96710.59;;;11.35;90.87
9822;BME280;4950;46.042;14.472;2022-09-28T04:10:07;96705.63;;;11.34;90.92
9822;BME280;4950;46.042;14.472;2022-09-28T04:12:34;96697.03;;;11.33;90.45
9822;BME280;4950;46.042;14.472;2022-09-28T04:15:01;96692.81;;;11.32;90.18
9822;BME280;4950;46.042;14.472;2022-09-28T04:17:27;96701.22;;;11.34;89.33
9822;BME280;4950;46.042;14.472;2022-09-28T04:19:54;96694.25;;;11.28;89.67
9822;BME280;4950;46.042;14.472;2022-09-28T04:22:22;96695.09;;;11.22;90.21
9822;BME280;4950;46.042;14.472;2022-09-28T04:24:50;96692.03;;;11.32;91.57
9822;BME280;4950;46.042;14.472;2022-09-28T04:27:16;96696.00;;;11.34;91.36
9822;BME280;4950;46.042;14.472;2022-09-28T04:30:00;96700.47;;;11.27;91.00
9822;BME280;4950;46.042;14.472;2022-09-28T04:32:27;96700.66;;;11.25;91.03
9822;BME280;4950;46.042;14.472;2022-09-28T04:34:54;96701.66;;;11.24;91.20
9822;BME280;4950;46.042;14.472;2022-09-28T04:37:20;96691.06;;;11.26;90.77
9822;BME280;4950;46.042;14.472;2022-09-28T04:39:47;96695.66;;;11.24;90.64
9822;BME280;4950;46.042;14.472;2022-09-28T04:42:15;96697.69;;;11.22;90.80
9822;BME280;4950;46.042;14.472;2022-09-28T04:44:41;96704.31;;;11.11;91.15
9822;BME280;4950;46.042;14.472;2022-09-28T04:47:08;96705.97;;;11.05;91.41
9822;BME280;4950;46.042;14.472;2022-09-28T04:49:35;96701.34;;;11.07;91.70
9822;BME280;4950;46.042;14.472;2022-09-28T04:52:02;96690.16;;;11.07;92.08
9822;BME280;4950;46.042;14.472;2022-09-28T04:54:29;96684.16;;;11.06;92.15
9822;BME280;4950;46.042;14.472;2022-09-28T04:56:56;96677.16;;;11.07;92.25
9822;BME280;4950;46.042;14.472;2022-09-28T04:59:24;96677.16;;;11.07;92.39
9822;BME280;4950;46.042;14.472;2022-09-28T05:01:51;96687.16;;;11.10;92.68
9822;BME280;4950;46.042;14.472;2022-09-28T05:04:18;96688.72;;;11.18;92.35
9822;BME280;4950;46.042;14.472;2022-09-28T05:06:45;96691.09;;;11.19;91.68
9822;BME280;4950;46.042;14.472;2022-09-28T05:09:11;96691.94;;;11.13;91.72
9822;BME280;4950;46.042;14.472;2022-09-28T05:11:38;96688.38;;;11.07;91.88
9822;BME280;4950;46.042;14.472;2022-09-28T05:14:05;96695.97;;;11.02;92.24
9822;BME280;4950;46.042;14.472;2022-09-28T05:16:33;96689.50;;;11.18;93.21
9822;BME280;4950;46.042;14.472;2022-09-28T05:19:00;96689.06;;;11.28;92.81
9822;BME280;4950;46.042;14.472;2022-09-28T05:21:26;96689.47;;;11.25;92.49
9822;BME280;4950;46.042;14.472;2022-09-28T05:23:54;96689.50;;;11.18;92.80
9822;BME280;4950;46.042;14.472;2022-09-28T05:26:22;96691.56;;;11.10;92.55
9822;BME280;4950;46.042;14.472;2022-09-28T05:28:49;96694.16;;;11.10;91.97
9822;BME280;4950;46.042;14.472;2022-09-28T05:31:16;96693.53;;;11.14;90.93
9822;BME280;4950;46.042;14.472;2022-09-28T05:33:44;96703.56;;;11.04;91.05
9822;BME280;4950;46.042;14.472;2022-09-28T05:36:10;96702.00;;;10.96;91.39
9822;BME280;4950;46.042;14.472;2022-09-28T05:38:37;96707.00;;;10.91;92.21
9822;BME280;4950;46.042;14.472;2022-09-28T05:41:04;96698.22;;;10.92;91.68
9822;BME280;4950;46.042;14.472;2022-09-28T05:43:31;96698.16;;;11.05;90.98
9822;BME280;4950;46.042;14.472;2022-09-28T05:45:58;96696.78;;;10.96;90.71
9822;BME280;4950;46.042;14.472;2022-09-28T05:48:25;96686.06;;;10.86;91.21
9822;BME280;4950;46.042;14.472;2022-09-28T05:50:54;96694.78;;;10.98;91.52
9822;BME280;4950;46.042;14.472;2022-09-28T05:53:20;96693.59;;;10.94;91.31
9822;BME280;4950;46.042;14.472;2022-09-28T05:55:47;96688.41;;;10.87;92.13
9822;BME280;4950;46.042;14.472;2022-09-28T05:58:14;96705.81;;;10.87;92.50
9822;BME280;4950;46.042;14.472;2022-09-28T06:00:41;96698.44;;;10.84;92.32
9822;BME280;4950;46.042;14.472;2022-09-28T06:03:11;96704.44;;;10.78;92.38
9822;BME280;4950;46.042;14.472;2022-09-28T06:05:38;96701.84;;;10.78;92.61
9822;BME280;4950;46.042;14.472;2022-09-28T06:08:08;96718.63;;;10.75;92.85
9822;BME280;4950;46.042;14.472;2022-09-28T06:10:36;96718.47;;;10.57;92.47
9822;BME280;4950;46.042;14.472;2022-09-28T06:13:03;96715.69;;;10.52;93.06
9822;BME280;4950;46.042;14.472;2022-09-28T06:15:32;96723.28;;;10.53;93.06
9822;BME280;4950;46.042;14.472;2022-09-28T06:18:01;96717.28;;;10.59;93.15
9822;BME280;4950;46.042;14.472;2022-09-28T06:20:30;96709.69;;;10.64;93.11
9822;BME280;4950;46.042;14.472;2022-09-28T06:22:58;96705.25;;;10.72;93.43
9822;BME280;4950;46.042;14.472;2022-09-28T06:25:26;96699.03;;;10.79;93.31
9822;BME280;4950;46.042;14.472;2022-09-28T06:27:54;96696.59;;;10.91;93.07
9822;BME280;4950;46.042;14.472;2022-09-28T06:30:21;96693.59;;;10.94;92.90
9822;BME280;4950;46.042;14.472;2022-09-28T06:32:51;96697.97;;;11.00;93.05
9822;BME280;4950;46.042;14.472;2022-09-28T06:35:18;96701.22;;;10.89;92.66
9822;BME280;4950;46.042;14.472;2022-09-28T06:37:45;96687.41;;;10.95;92.49
9822;BME280;4950;46.042;14.472;2022-09-28T06:40:11;96682.22;;;10.95;93.26
9822;BME280;4950;46.042;14.472;2022-09-28T06:42:40;96678.63;;;10.96;93.47
9822;BME280;4950;46.042;14.472;2022-09-28T06:45:07;96690.41;;;10.92;93.33
9822;BME280;4950;46.042;14.472;2022-09-28T06:47:35;96699.81;;;10.86;93.75
9822;BME280;4950;46.042;14.472;2022-09-28T06:50:02;96703.63;;;10.77;94.13
9822;BME280;4950;46.042;14.472;2022-09-28T06:52:28;96712.88;;;10.66;94.65
9822;BME280;4950;46.042;14.472;2022-09-28T06:54:55;96715.03;;;10.70;94.73
9822;BME280;4950;46.042;14.472;2022-09-28T06:57:21;96706.25;;;10.77;94.62
9822;BME280;4950;46.042;14.472;2022-09-28T06:59:49;96708.59;;;10.85;94.60
9822;BME280;4950;46.042;14.472;2022-09-28T07:02:16;96713.19;;;10.90;94.53
9822;BME280;4950;46.042;14.472;2022-09-28T07:04:42;96700.38;;;10.95;94.42
9822;BME280;4950;46.042;14.472;2022-09-28T07:07:09;96692.00;;;11.00;94.47
9822;BME280;4950;46.042;14.472;2022-09-28T07:09:36;96696.16;;;11.01;93.72
9822;BME280;4950;46.042;14.472;2022-09-28T07:12:03;96686.59;;;11.01;93.78
9822;BME280;4950;46.042;14.472;2022-09-28T07:14:31;96686.75;;;11.06;94.01
9822;BME280;4950;46.042;14.472;2022-09-28T07:16:59;96685.94;;;11.13;93.79
9822;BME280;4950;46.042;14.472;2022-09-28T07:19:26;96681.50;;;11.20;93.59
9822;BME280;4950;46.042;14.472;2022-09-28T07:21:53;96681.06;;;11.30;93.48
9822;BME280;4950;46.042;14.472;2022-09-28T07:24:21;96677.03;;;11.34;93.44
9822;BME280;4950;46.042;14.472;2022-09-28T07:26:47;96678.53;;;11.48;92.96
9822;BME280;4950;46.042;14.472;2022-09-28T07:29:15;96671.50;;;11.55;92.11
9822;BME280;4950;46.042;14.472;2022-09-28T07:31:41;96670.28;;;11.58;90.52
9822;BME280;4950;46.042;14.472;2022-09-28T07:34:09;96662.34;;;11.53;90.66
9822;BME280;4950;46.042;14.472;2022-09-28T07:36:36;96667.34;;;11.48;90.42
9822;BME280;4950;46.042;14.472;2022-09-28T07:39:03;96673.56;;;11.46;91.10
9822;BME280;4950;46.042;14.472;2022-09-28T07:41:30;96680.72;;;11.51;90.65
9822;BME280;4950;46.042;14.472;2022-09-28T07:43:59;96677.59;;;11.42;90.54
9822;BME280;4950;46.042;14.472;2022-09-28T07:46:31;96670.78;;;11.41;90.25
9822;BME280;4950;46.042;14.472;2022-09-28T07:48:58;96671.75;;;11.47;90.48
9822;BME280;4950;46.042;14.472;2022-09-28T07:51:26;96668.69;;;11.57;90.13
9822;BME280;4950;46.042;14.472;2022-09-28T07:53:53;96680.94;;;11.50;90.39
9822;BME280;4950;46.042;14.472;2022-09-28T07:56:20;96676.53;;;11.50;90.90
9822;BME280;4950;46.042;14.472;2022-09-28T07:58:46;96677.34;;;11.51;90.81
9822;BME280;4950;46.042;14.472;2022-09-28T08:01:13;96674.75;;;11.51;90.75
9822;BME280;4950;46.042;14.472;2022-09-28T08:03:41;96678.91;;;11.52;90.71
9822;BME280;4950;46.042;14.472;2022-09-28T08:06:10;96676.75;;;11.49;90.74
9822;BME280;4950;46.042;14.472;2022-09-28T08:08:40;96673.91;;;11.57;90.47
9822;BME280;4950;46.042;14.472;2022-09-28T08:11:09;96676.50;;;11.57;90.75
9822;BME280;4950;46.042;14.472;2022-09-28T08:13:36;96671.09;;;11.58;91.26
9822;BME280;4950;46.042;14.472;2022-09-28T08:16:04;96670.44;;;11.63;91.41
9822;BME280;4950;46.042;14.472;2022-09-28T08:18:31;96655.25;;;11.66;90.73
9822;BME280;4950;46.042;14.472;2022-09-28T08:20:59;96647.81;;;11.70;90.84
9822;BME280;4950;46.042;14.472;2022-09-28T08:23:44;96660.72;;;11.83;90.43
9822;BME280;4950;46.042;14.472;2022-09-28T08:26:11;96665.22;;;11.95;88.84
9822;BME280;4950;46.042;14.472;2022-09-28T08:28:37;96668.06;;;11.86;89.07
9822;BME280;4950;46.042;14.472;2022-09-28T08:31:05;96667.56;;;11.78;88.67
9822;BME280;4950;46.042;14.472;2022-09-28T08:33:32;96661.13;;;11.80;88.87
9822;BME280;4950;46.042;14.472;2022-09-28T08:36:00;96659.06;;;11.89;88.53
9822;BME280;4950;46.042;14.472;2022-09-28T08:38:28;96650.47;;;11.89;88.47
9822;BME280;4950;46.042;14.472;2022-09-28T08:41:02;96651.44;;;11.94;88.08
9822;BME280;4950;46.042;14.472;2022-09-28T08:43:52;96655.66;;;11.95;87.70
9822;BME280;4950;46.042;14.472;2022-09-28T08:46:21;96647.41;;;11.98;87.58
9822;BME280;4950;46.042;14.472;2022-09-28T08:48:52;96657.03;;;12.16;87.40
9822;BME280;4950;46.042;14.472;2022-09-28T08:51:24;96648.81;;;12.19;87.33
9822;BME280;4950;46.042;14.472;2022-09-28T08:53:55;96645.72;;;12.29;87.03
9822;BME280;4950;46.042;14.472;2022-09-28T08:56:33;96640.19;;;12.44;86.42
9822;BME280;4950;46.042;14.472;2022-09-28T08:59:09;96644.72;;;12.49;86.82
9822;BME280;4950;46.042;14.472;2022-09-28T09:01:45;96644.44;;;12.57;86.49
9822;BME280;4950;46.042;14.472;2022-09-28T09:04:13;96640.38;;;12.61;86.12
9822;BME280;4950;46.042;14.472;2022-09-28T09:09:47;96658.66;;;12.73;84.46
9822;BME280;4950;46.042;14.472;2022-09-28T09:12:26;96649.59;;;12.63;84.41
9822;BME280;4950;46.042;14.472;2022-09-28T09:15:11;96644.28;;;12.52;84.43
9822;BME280;4950;46.042;14.472;2022-09-28T09:17:48;96639.88;;;12.52;85.13
9822;BME280;4950;46.042;14.472;2022-09-28T09:20:24;96630.34;;;12.64;85.01
9822;BME280;4950;46.042;14.472;2022-09-28T09:22:58;96628.50;;;12.65;85.27
9822;BME280;4950;46.042;14.472;2022-09-28T09:25:26;96624.47;;;12.69;84.83
9822;BME280;4950;46.042;14.472;2022-09-28T09:28:05;96614.19;;;12.74;84.87
9822;BME280;4950;46.042;14.472;2022-09-28T09:30:44;96617.31;;;12.83;84.67
9822;BME280;4950;46.042;14.472;2022-09-28T09:36:34;96638.41;;;12.93;83.91
9822;BME280;4950;46.042;14.472;2022-09-28T09:39:16;96628.16;;;13.10;83.41
9822;BME280;4950;46.042;14.472;2022-09-28T09:41:57;96619.69;;;13.15;82.88
9822;BME280;4950;46.042;14.472;2022-09-28T09:44:55;96610.97;;;13.21;82.49
9822;BME280;4950;46.042;14.472;2022-09-28T09:47:28;96616.69;;;13.30;82.28
9822;BME280;4950;46.042;14.472;2022-09-28T09:49:58;96618.38;;;13.24;82.68
9822;BME280;4950;46.042;14.472;2022-09-28T09:52:31;96623.78;;;13.22;82.83
9822;BME280;4950;46.042;14.472;2022-09-28T09:55:03;96609.78;;;13.35;82.55
9822;BME280;4950;46.042;14.472;2022-09-28T09:57:37;96596.09;;;13.40;82.59
9822;BME280;4950;46.042;14.472;2022-09-28T10:00:12;96596.56;;;13.49;83.62
9822;BME280;4950;46.042;14.472;2022-09-28T10:02:40;96592.28;;;13.66;84.31
9822;BME280;4950;46.042;14.472;2022-09-28T10:05:17;96596.38;;;13.74;82.65
9822;BME280;4950;46.042;14.472;2022-09-28T10:07:50;96590.16;;;13.87;81.18
9822;BME280;4950;46.042;14.472;2022-09-28T10:10:21;96591.59;;;13.82;81.10
9822;BME280;4950;46.042;14.472;2022-09-28T10:12:50;96590.59;;;13.83;80.71
9822;BME280;4950;46.042;14.472;2022-09-28T10:15:23;96586.38;;;13.82;81.36
9822;BME280;4950;46.042;14.472;2022-09-28T10:17:51;96573.94;;;13.85;80.68
9822;BME280;4950;46.042;14.472;2022-09-28T10:20:19;96574.59;;;13.80;80.99
9822;BME280;4950;46.042;14.472;2022-09-28T10:22:48;96579.03;;;13.79;81.19
9822;BME280;4950;46.042;14.472;2022-09-28T10:25:16;96579.38;;;13.83;80.54
9822;BME280;4950;46.042;14.472;2022-09-28T10:27:46;96585.25;;;13.90;80.50
9822;BME280;4950;46.042;14.472;2022-09-28T10:30:16;96594.88;;;13.90;79.58
9822;BME280;4950;46.042;14.472;2022-09-28T10:32:46;96593.06;;;13.78;80.07
9822;BME280;4950;46.042;14.472;2022-09-28T10:35:21;96583.44;;;13.79;79.62
9822;BME280;4950;46.042;14.472;2022-09-28T10:37:50;96579.72;;;13.87;80.23
9822;BME280;4950;46.042;14.472;2022-09-28T10:40:30;96576.97;;;14.05;79.41
9822;BME280;4950;46.042;14.472;2022-09-28T10:43:00;96577.66;;;14.00;79.69
9822;BME280;4950;46.042;14.472;2022-09-28T10:45:32;96583.78;;;14.18;79.96
9822;BME280;4950;46.042;14.472;2022-09-28T10:48:04;96573.19;;;14.25;79.58
9822;BME280;4950;46.042;14.472;2022-09-28T10:50:31;96576.72;;;14.18;79.27
9822;BME280;4950;46.042;14.472;2022-09-28T10:53:10;96576.59;;;14.13;78.45
9822;BME280;4950;46.042;14.472;2022-09-28T10:55:37;96583.22;;;14.16;78.79
9822;BME280;4950;46.042;14.472;2022-09-28T10:58:23;96573.41;;;14.23;78.91
9822;BME280;4950;46.042;14.472;2022-09-28T11:00:50;96560.56;;;14.33;77.87
9822;BME280;4950;46.042;14.472;2022-09-28T11:03:22;96550.78;;;14.40;78.00
9822;BME280;4950;46.042;14.472;2022-09-28T11:05:56;96547.88;;;14.77;76.03
9822;BME280;4950;46.042;14.472;2022-09-28T11:08:27;96540.34;;;15.10;75.95
9822;BME280;4950;46.042;14.472;2022-09-28T11:11:06;96536.69;;;15.62;71.93
9822;BME280;4950;46.042;14.472;2022-09-28T11:13:38;96546.19;;;15.85;70.22
9822;BME280;4950;46.042;14.472;2022-09-28T11:16:06;96546.88;;;15.97;69.48
9822;BME280;4950;46.042;14.472;2022-09-28T11:18:34;96542.06;;;16.11;69.24
9822;BME280;4950;46.042;14.472;2022-09-28T11:21:08;96537.00;;;16.21;68.72
9822;BME280;4950;46.042;14.472;2022-09-28T11:23:34;96523.44;;;16.51;68.14
9822;BME280;4950;46.042;14.472;2022-09-28T11:26:04;96527.38;;;16.76;66.73
9822;BME280;4950;46.042;14.472;2022-09-28T11:28:33;96516.78;;;16.93;66.70
9822;BME280;4950;46.042;14.472;2022-09-28T11:31:02;96513.78;;;17.06;65.85
9822;BME280;4950;46.042;14.472;2022-09-28T11:33:32;96513.22;;;17.04;65.50
9822;BME280;4950;46.042;14.472;2022-09-28T11:36:11;96513.78;;;17.06;67.05
9822;BME280;4950;46.042;14.472;2022-09-28T11:38:45;96509.19;;;17.19;68.21
9822;BME280;4950;46.042;14.472;2022-09-28T11:44:29;96499.22;;;17.58;66.76
9822;BME280;4950;46.042;14.472;2022-09-28T11:47:10;96486.72;;;17.75;65.92
9822;BME280;4950;46.042;14.472;2022-09-28T11:49:45;96489.59;;;17.74;67.29
9822;BME280;4950;46.042;14.472;2022-09-28T11:52:20;96491.97;;;17.81;67.23
9822;BME280;4950;46.042;14.472;2022-09-28T11:54:51;96488.56;;;17.80;67.30
9822;BME280;4950;46.042;14.472;2022-09-28T11:57:24;96495.09;;;17.72;68.05
9822;BME280;4950;46.042;14.472;2022-09-28T11:59:56;96488.81;;;17.73;66.42
9822;BME280;4950;46.042;14.472;2022-09-28T12:02:27;96482.97;;;17.66;67.33
9822;BME280;4950;46.042;14.472;2022-09-28T12:05:09;96484.97;;;17.49;67.80
9822;BME280;4950;46.042;14.472;2022-09-28T12:07:42;96490.66;;;17.35;69.02
9822;BME280;4950;46.042;14.472;2022-09-28T12:10:15;96482.78;;;17.30;69.49
9822;BME280;4950;46.042;14.472;2022-09-28T12:12:46;96477.53;;;17.30;69.16
9822;BME280;4950;46.042;14.472;2022-09-28T12:15:17;96475.88;;;17.24;69.95
9822;BME280;4950;46.042;14.472;2022-09-28T12:17:48;96469.03;;;17.18;69.96
9822;BME280;4950;46.042;14.472;2022-09-28T12:20:20;96472.34;;;17.08;69.83
9822;BME280;4950;46.042;14.472;2022-09-28T12:22:57;96473.91;;;17.04;70.43
9822;BME280;4950;46.042;14.472;2022-09-28T12:25:28;96472.03;;;17.00;70.20
9822;BME280;4950;46.042;14.472;2022-09-28T12:28:00;96467.28;;;16.96;70.48
9822;BME280;4950;46.042;14.472;2022-09-28T12:30:33;96471.13;;;16.84;70.82
9822;BME280;4950;46.042;14.472;2022-09-28T12:33:04;96470.78;;;16.80;70.77
9822;BME280;4950;46.042;14.472;2022-09-28T12:35:43;96467.56;;;16.73;71.10
9822;BME280;4950;46.042;14.472;2022-09-28T12:38:26;96469.34;;;16.89;71.17
9822;BME280;4950;46.042;14.472;2022-09-28T12:41:03;96467.13;;;16.81;71.65
9822;BME280;4950;46.042;14.472;2022-09-28T12:43:49;96463.97;;;16.79;72.86
9822;BME280;4950;46.042;14.472;2022-09-28T12:46:39;96454.53;;;16.78;72.89
9822;BME280;4950;46.042;14.472;2022-09-28T12:49:18;96466.91;;;16.83;73.29
9822;BME280;4950;46.042;14.472;2022-09-28T12:51:50;96468.19;;;16.80;73.32
9822;BME280;4950;46.042;14.472;2022-09-28T12:57:19;96473.59;;;16.73;73.77
9822;BME280;4950;46.042;14.472;2022-09-28T12:59:59;96457.84;;;16.68;74.00
9822;BME280;4950;46.042;14.472;2022-09-28T13:02:40;96471.78;;;16.74;74.06
9822;BME280;4950;46.042;14.472;2022-09-28T13:05:23;96472.66;;;16.57;73.84
9822;BME280;4950;46.042;14.472;2022-09-28T13:07:58;96463.69;;;16.48;74.32
9822;BME280;4950;46.042;14.472;2022-09-28T13:10:32;96463.63;;;16.43;74.92
9822;BME280;4950;46.042;14.472;2022-09-28T13:13:22;96458.88;;;16.40;75.13
9822;BME280;4950;46.042;14.472;2022-09-28T13:15:57;96466.19;;;16.38;74.92
9822;BME280;4950;46.042;14.472;2022-09-28T13:18:30;96459.63;;;16.35;75.47
9822;BME280;4950;46.042;14.472;2022-09-28T13:21:07;96460.66;;;16.34;75.88
9822;BME280;4950;46.042;14.472;2022-09-28T13:23:38;96455.16;;;16.36;76.28
9822;BME280;4950;46.042;14.472;2022-09-28T13:26:13;96445.75;;;16.35;76.17
9822;BME280;4950;46.042;14.472;2022-09-28T13:28:43;96451.53;;;16.37;76.72
9822;BME280;4950;46.042;14.472;2022-09-28T13:31:17;96445.91;;;16.28;76.94
9822;BME280;4950;46.042;14.472;2022-09-28T13:33:46;96448.81;;;16.27;77.43
9822;BME280;4950;46.042;14.472;2022-09-28T13:36:35;96465.31;;;16.27;77.83
9822;BME280;4950;46.042;14.472;2022-09-28T13:39:08;96464.53;;;16.27;78.05
9822;BME280;4950;46.042;14.472;2022-09-28T13:41:51;96448.19;;;16.19;78.46
9822;BME280;4950;46.042;14.472;2022-09-28T13:44:41;96457.63;;;16.21;79.18